createdAt,value
2019-04-22T00:01:04.784Z,12.10
2019-04-22T00:03:42.781Z,12.10
2019-04-22T00:06:32.498Z,12.60
2019-04-22T00:09:03.317Z,12.30
2019-04-22T00:11:38.446Z,12.20
2019-04-22T00:14:08.516Z,12.20
2019-04-22T00:16:46.865Z,12.10
2019-04-22T00:19:33.538Z,12.30
2019-04-22T00:21:48.983Z,12.00
2019-04-22T00:24:17.055Z,12.00
2019-04-22T00:26:50.240Z,12.00
2019-04-22T00:32:02.055Z,11.90
2019-04-22T00:34:35.650Z,11.90
2019-04-22T00:37:11.610Z,12.00
2019-04-22T00:39:40.939Z,12.10
2019-04-22T00:42:15.334Z,12.10
2019-04-22T00:44:45.611Z,11.90
2019-04-22T00:47:23.152Z,11.90
2019-04-22T00:52:22.322Z,12.00
2019-04-22T00:55:04.207Z,12.00
2019-04-22T00:57:28.188Z,12.00
2019-04-22T00:59:58.578Z,11.90
2019-04-22T01:02:32.570Z,11.70
2019-04-22T01:05:05.506Z,11.80
2019-04-22T01:07:30.832Z,11.90
2019-04-22T01:10:11.571Z,11.80
2019-04-22T01:12:39.518Z,11.80
2019-04-22T01:15:17.577Z,11.90
2019-04-22T01:17:45.035Z,11.70
2019-04-22T01:20:37.240Z,11.70
2019-04-22T01:22:46.670Z,11.90
2019-04-22T01:25:20.574Z,11.90
2019-04-22T01:27:46.251Z,11.90
2019-04-22T01:30:15.081Z,11.70
2019-04-22T01:32:43.030Z,11.70
2019-04-22T01:35:20.747Z,11.60
2019-04-22T01:37:54.668Z,11.70
2019-04-22T01:40:39.336Z,11.60
2019-04-22T01:43:18.555Z,11.70
2019-04-22T01:45:39.401Z,11.50
2019-04-22T01:48:17.766Z,11.70
2019-04-22T01:50:43.192Z,11.60
2019-04-22T01:53:24.595Z,11.60
2019-04-22T01:55:45.471Z,11.50
2019-04-22T01:58:20.186Z,11.40
2019-04-22T02:00:59.731Z,11.30
2019-04-22T02:05:59.224Z,11.70
2019-04-22T02:08:40.532Z,11.80
2019-04-22T02:11:04.328Z,11.90
2019-04-22T02:13:36.346Z,11.30
2019-04-22T02:16:10.967Z,11.30
2019-04-22T02:21:07.294Z,11.30
2019-04-22T02:26:23.784Z,11.40
2019-04-22T02:29:02.004Z,11.40
2019-04-22T02:31:44.449Z,11.60
2019-04-22T02:34:14.047Z,11.60
2019-04-22T02:36:30.060Z,11.70
2019-04-22T02:39:14.656Z,11.50
2019-04-22T02:44:08.434Z,11.40
2019-04-22T02:46:58.115Z,11.40
2019-04-22T02:49:22.012Z,11.40
2019-04-22T02:51:32.914Z,11.20
2019-04-22T02:54:31.683Z,11.20
2019-04-22T02:59:14.103Z,11.20
2019-04-22T03:04:20.696Z,11.50
2019-04-22T03:06:43.471Z,11.40
2019-04-22T03:09:25.986Z,11.20
2019-04-22T03:12:11.420Z,11.40
2019-04-22T03:17:06.100Z,11.10
2019-04-22T03:19:48.172Z,11.10
2019-04-22T03:22:12.679Z,11.00
2019-04-22T03:27:12.407Z,11.10
2019-04-22T03:33:09.220Z,11.00
2019-04-22T03:35:31.657Z,11.00
2019-04-22T03:37:48.525Z,11.10
2019-04-22T03:40:25.060Z,11.00
2019-04-22T03:42:59.716Z,11.00
2019-04-22T03:55:32.678Z,11.00
2019-04-22T04:03:07.784Z,10.80
2019-04-22T04:05:45.484Z,10.90
2019-04-22T04:15:34.662Z,10.80
2019-04-22T04:18:13.330Z,10.90
2019-04-22T04:25:52.710Z,10.70
2019-04-22T04:28:39.963Z,10.70
2019-04-22T04:31:09.876Z,10.70
2019-04-22T04:33:35.964Z,10.70
2019-04-22T04:36:02.971Z,10.80
2019-04-22T04:38:43.421Z,10.70
2019-04-22T04:41:19.373Z,10.60
2019-04-22T04:43:50.499Z,10.70
2019-04-22T04:46:20.370Z,10.80
2019-04-22T04:48:58.505Z,10.80
2019-04-22T04:51:34.682Z,10.80
2019-04-22T04:53:41.299Z,10.80
2019-04-22T04:56:23.250Z,10.70
2019-04-22T04:59:05.011Z,10.70
2019-04-22T05:01:30.853Z,10.70
2019-04-22T05:04:11.306Z,10.80
2019-04-22T05:06:39.642Z,10.80
2019-04-22T05:09:13.514Z,11.10
2019-04-22T05:11:50.236Z,10.90
2019-04-22T05:14:06.306Z,10.90
2019-04-22T05:19:12.858Z,10.90
2019-04-22T05:21:31.031Z,11.00
2019-04-22T05:26:46.661Z,11.00
2019-04-22T05:29:15.170Z,11.00
2019-04-22T05:31:43.543Z,11.30
2019-04-22T05:34:14.629Z,11.30
2019-04-22T05:36:47.228Z,11.30
2019-04-22T05:39:17.247Z,11.40
2019-04-22T05:41:50.887Z,11.60
2019-04-22T05:44:26.254Z,11.60
2019-04-22T05:46:54.361Z,11.70
2019-04-22T05:49:26.167Z,11.70
2019-04-22T05:51:54.610Z,11.60
2019-04-22T05:54:35.197Z,11.60
2019-04-22T05:57:02.081Z,11.70
2019-04-22T05:59:42.294Z,11.70
2019-04-22T06:02:21.047Z,12.10
2019-04-22T06:04:44.991Z,11.90
2019-04-22T06:07:13.094Z,12.00
2019-04-22T06:09:47.235Z,12.00
2019-04-22T06:12:14.777Z,12.10
2019-04-22T06:14:55.744Z,12.10
2019-04-22T06:17:24.863Z,12.60
2019-04-22T06:20:00.575Z,12.30
2019-04-22T06:22:40.005Z,12.30
2019-04-22T06:25:00.891Z,12.60
2019-04-22T06:27:37.480Z,12.80
2019-04-22T06:30:04.261Z,12.80
2019-04-22T06:32:56.859Z,12.90
2019-04-22T06:35:18.450Z,13.10
2019-04-22T06:37:53.225Z,13.30
2019-04-22T06:40:13.446Z,13.70
2019-04-22T06:42:52.165Z,13.60
2019-04-22T06:45:19.289Z,13.70
2019-04-22T06:50:23.128Z,14.10
2019-04-22T06:52:56.792Z,14.10
2019-04-22T06:55:31.255Z,14.30
2019-04-22T06:57:59.858Z,14.40
2019-04-22T07:00:30.565Z,14.50
2019-04-22T07:06:12.707Z,14.60
2019-04-22T07:11:11.200Z,14.70
2019-04-22T07:13:51.737Z,14.90
2019-04-22T07:16:26.236Z,15.20
2019-04-22T07:19:07.419Z,15.20
2019-04-22T07:21:30.520Z,15.30
2019-04-22T07:24:17.875Z,15.40
2019-04-22T07:26:24.766Z,15.50
2019-04-22T07:29:01.504Z,15.60
2019-04-22T07:31:34.170Z,15.70
2019-04-22T07:34:16.351Z,16.00
2019-04-22T07:39:10.331Z,16.10
2019-04-22T07:41:59.194Z,16.20
2019-04-22T07:44:16.552Z,16.20
2019-04-22T07:46:53.377Z,16.20
2019-04-22T07:49:18.825Z,16.10
2019-04-22T07:51:49.862Z,16.10
2019-04-22T07:54:23.854Z,16.00
2019-04-22T07:56:59.961Z,16.10
2019-04-22T07:59:28.067Z,16.10
2019-04-22T08:01:56.540Z,16.30
2019-04-22T08:04:52.823Z,16.50
2019-04-22T08:07:10.722Z,16.90
2019-04-22T08:09:37.427Z,17.20
2019-04-22T08:12:02.624Z,17.60
2019-04-22T08:14:40.889Z,18.00
2019-04-22T08:17:36.425Z,18.30
2019-04-22T08:19:46.811Z,18.50
2019-04-22T08:22:11.710Z,18.60
2019-04-22T08:24:51.413Z,18.70
2019-04-22T08:27:15.455Z,18.80
2019-04-22T08:29:58.700Z,19.10
2019-04-22T08:32:25.803Z,19.60
2019-04-22T08:34:52.878Z,19.70
2019-04-22T08:40:02.885Z,19.70
2019-04-22T08:45:09.492Z,20.10
2019-04-22T08:47:38.467Z,20.70
2019-04-22T08:50:12.023Z,20.90
2019-04-22T08:52:40.631Z,20.80
2019-04-22T08:55:12.931Z,20.90
2019-04-22T08:58:07.201Z,20.90
2019-04-22T09:00:14.803Z,21.00
2019-04-22T09:02:48.200Z,20.90
2019-04-22T09:05:39.085Z,21.10
2019-04-22T09:07:52.683Z,21.30
2019-04-22T09:10:23.927Z,21.30
2019-04-22T09:15:30.465Z,21.70
2019-04-22T09:18:01.990Z,21.60
2019-04-22T09:20:32.666Z,21.60
2019-04-22T09:23:09.252Z,21.70
2019-04-22T09:28:07.297Z,22.40
2019-04-22T09:30:50.290Z,22.30
2019-04-22T09:35:51.624Z,22.50
2019-04-22T09:38:33.157Z,22.40
2019-04-22T09:40:55.263Z,22.20
2019-04-22T09:43:32.085Z,22.20
2019-04-22T09:45:57.521Z,22.20
2019-04-22T09:48:37.543Z,22.50
2019-04-22T09:51:05.632Z,22.90
2019-04-22T09:56:10.178Z,23.30
2019-04-22T09:58:44.759Z,23.50
2019-04-22T10:03:56.004Z,23.50
2019-04-22T10:06:33.768Z,23.20
2019-04-22T10:16:33.868Z,23.80
2019-04-22T10:21:43.208Z,24.40
2019-04-22T10:24:03.316Z,24.80
2019-04-22T10:26:39.137Z,24.80
2019-04-22T10:29:13.465Z,25.00
2019-04-22T10:34:02.715Z,25.20
2019-04-22T10:36:19.606Z,25.50
2019-04-22T10:38:50.654Z,25.70
2019-04-22T10:41:22.790Z,25.90
2019-04-22T10:43:54.981Z,25.80
2019-04-22T10:46:26.375Z,25.40
2019-04-22T10:48:57.858Z,25.40
2019-04-22T10:51:28.751Z,25.40
2019-04-22T10:53:59.781Z,25.60
2019-04-22T10:56:30.672Z,25.90
2019-04-22T10:59:02.630Z,25.80
2019-04-22T11:01:38.468Z,25.90
2019-04-22T11:04:11.266Z,25.70
2019-04-22T11:06:51.826Z,25.90
2019-04-22T11:09:16.317Z,26.20
2019-04-22T11:11:56.525Z,26.20
2019-04-22T11:14:21.279Z,26.00
2019-04-22T11:16:51.574Z,26.00
2019-04-22T11:19:23.588Z,26.10
2019-04-22T11:22:03.387Z,26.20
2019-04-22T11:24:26.651Z,26.50
2019-04-22T11:26:58.813Z,26.30
2019-04-22T11:29:29.895Z,26.30
2019-04-22T11:32:02.180Z,26.20
2019-04-22T11:34:33.390Z,26.10
2019-04-22T11:37:05.257Z,26.10
2019-04-22T11:39:36.683Z,26.20
2019-04-22T11:42:07.863Z,26.50
2019-04-22T11:44:39.132Z,26.60
2019-04-22T11:47:09.725Z,26.70
2019-04-22T11:49:41.638Z,26.70
2019-04-22T11:52:15.254Z,26.60
2019-04-22T11:54:46.706Z,26.40
2019-04-22T11:57:17.161Z,26.40
2019-04-22T11:59:47.395Z,26.60
2019-04-22T12:02:21.966Z,26.60
2019-04-22T12:04:53.651Z,26.40
2019-04-22T12:07:24.283Z,26.60
2019-04-22T12:09:55.616Z,26.60
2019-04-22T12:12:27.830Z,26.60
2019-04-22T12:14:58.844Z,26.40
2019-04-22T12:17:29.949Z,26.50
2019-04-22T12:20:02.082Z,26.30
2019-04-22T12:22:32.166Z,26.60
2019-04-22T12:25:04.124Z,26.80
2019-04-22T12:27:35.228Z,27.00
2019-04-22T12:30:06.915Z,26.90
2019-04-22T12:32:39.024Z,26.90
2019-04-22T12:35:11.549Z,26.70
2019-04-22T12:37:49.710Z,27.10
2019-04-22T12:40:29.115Z,27.30
2019-04-22T12:42:49.050Z,27.10
2019-04-22T12:45:20.490Z,27.00
2019-04-22T12:47:50.960Z,27.00
2019-04-22T12:50:29.242Z,27.00
2019-04-22T12:53:00.791Z,26.80
2019-04-22T12:55:27.956Z,26.90
2019-04-22T12:58:00.816Z,27.00
2019-04-22T13:00:30.387Z,27.20
2019-04-22T13:03:01.136Z,27.30
2019-04-22T13:05:33.283Z,27.00
2019-04-22T13:08:05.443Z,26.90
2019-04-22T13:10:45.621Z,27.00
2019-04-22T13:13:09.208Z,26.80
2019-04-22T13:15:39.501Z,26.60
2019-04-22T13:18:20.516Z,26.60
2019-04-22T13:20:44.298Z,26.70
2019-04-22T13:23:15.715Z,26.50
2019-04-22T13:25:47.140Z,26.40
2019-04-22T13:28:19.071Z,26.50
2019-04-22T13:30:50.545Z,26.50
2019-04-22T13:33:21.045Z,26.70
2019-04-22T13:35:52.180Z,27.00
2019-04-22T13:38:22.809Z,27.10
2019-04-22T13:41:07.183Z,27.20
2019-04-22T13:43:25.265Z,27.30
2019-04-22T13:45:56.196Z,27.10
2019-04-22T13:48:51.719Z,27.10
2019-04-22T13:51:38.523Z,27.20
2019-04-22T13:54:29.544Z,27.20
2019-04-22T13:56:25.714Z,26.90
2019-04-22T13:58:48.501Z,26.70
2019-04-22T14:01:12.790Z,26.60
2019-04-22T14:04:02.567Z,26.60
2019-04-22T14:06:34.519Z,26.60
2019-04-22T14:09:09.530Z,26.60
2019-04-22T14:11:49.887Z,26.50
2019-04-22T14:14:12.738Z,26.40
2019-04-22T14:16:43.036Z,26.40
2019-04-22T14:19:14.163Z,26.30
2019-04-22T14:21:47.366Z,26.40
2019-04-22T14:24:17.817Z,26.30
2019-04-22T14:26:59.983Z,26.20
2019-04-22T14:29:21.746Z,26.30
2019-04-22T14:32:04.234Z,26.40
2019-04-22T14:34:26.586Z,26.20
2019-04-22T14:36:57.361Z,26.20
2019-04-22T14:39:28.089Z,26.50
2019-04-22T14:44:37.840Z,26.30
2019-04-22T14:47:29.281Z,26.40
2019-04-22T14:50:01.047Z,26.50
2019-04-22T14:52:31.430Z,26.40
2019-04-22T14:54:51.643Z,26.60
2019-04-22T14:57:12.974Z,26.50
2019-04-22T14:59:44.028Z,26.50
2019-04-22T15:02:16.021Z,26.60
2019-04-22T15:04:48.000Z,26.60
2019-04-22T15:07:19.190Z,26.60
2019-04-22T15:09:50.336Z,26.40
2019-04-22T15:12:31.272Z,26.70
2019-04-22T15:14:53.450Z,26.80
2019-04-22T15:17:44.984Z,26.80
2019-04-22T15:20:27.654Z,26.70
2019-04-22T15:22:59.091Z,26.60
2019-04-22T15:25:30.621Z,26.50
2019-04-22T15:28:01.616Z,26.70
2019-04-22T15:30:33.100Z,26.60
2019-04-22T15:33:03.716Z,26.30
2019-04-22T15:35:35.321Z,26.30
2019-04-22T15:38:06.909Z,26.20
2019-04-22T15:40:38.553Z,26.10
2019-04-22T15:43:10.878Z,25.90
2019-04-22T15:45:41.318Z,26.10
2019-04-22T15:48:11.780Z,26.00
2019-04-22T15:50:42.488Z,26.20
2019-04-22T15:53:13.845Z,25.90
2019-04-22T15:55:44.885Z,25.80
2019-04-22T15:58:15.480Z,25.80
2019-04-22T16:00:57.663Z,25.80
2019-04-22T16:03:18.621Z,26.00
2019-04-22T16:05:50.096Z,25.80
2019-04-22T16:08:21.399Z,26.20
2019-04-22T16:10:51.848Z,26.00
2019-04-22T16:13:26.450Z,25.60
2019-04-22T16:15:54.629Z,25.70
2019-04-22T16:18:26.503Z,25.70
2019-04-22T16:20:56.797Z,25.50
2019-04-22T16:23:38.555Z,25.70
2019-04-22T16:26:28.422Z,25.60
2019-04-22T16:28:59.612Z,25.40
2019-04-22T16:31:31.384Z,25.60
2019-04-22T16:34:02.649Z,25.30
2019-04-22T16:36:34.567Z,25.40
2019-04-22T16:39:06.927Z,25.40
2019-04-22T16:41:37.167Z,25.40
2019-04-22T16:44:08.927Z,25.20
2019-04-22T16:46:41.541Z,25.10
2019-04-22T16:49:14.106Z,25.00
2019-04-22T16:51:45.710Z,24.80
2019-04-22T16:54:16.328Z,24.90
2019-04-22T16:56:47.994Z,24.80
2019-04-22T16:59:18.977Z,24.70
2019-04-22T17:02:08.580Z,24.70
2019-04-22T17:05:05.263Z,24.40
2019-04-22T17:07:36.180Z,24.60
2019-04-22T17:10:08.220Z,24.60
2019-04-22T17:12:48.847Z,24.40
2019-04-22T17:15:13.998Z,24.30
2019-04-22T17:17:43.245Z,24.40
2019-04-22T17:20:13.698Z,24.20
2019-04-22T17:22:44.911Z,24.20
2019-04-22T17:25:16.269Z,24.30
2019-04-22T17:27:47.483Z,24.00
2019-04-22T17:30:18.101Z,24.00
2019-04-22T17:32:48.662Z,23.90
2019-04-22T17:35:19.993Z,23.80
2019-04-22T17:38:01.818Z,23.60
2019-04-22T17:40:38.818Z,23.60
2019-04-22T17:43:29.990Z,23.50
2019-04-22T17:45:58.479Z,23.30
2019-04-22T17:48:40.743Z,23.10
2019-04-22T17:51:19.102Z,23.20
2019-04-22T17:53:51.574Z,23.00
2019-04-22T17:56:14.048Z,22.80
2019-04-22T17:58:47.708Z,22.60
2019-04-22T18:01:19.131Z,22.50
2019-04-22T18:03:37.307Z,22.50
2019-04-22T18:06:10.394Z,22.30
2019-04-22T18:09:12.418Z,22.20
2019-04-22T18:11:51.203Z,22.20
2019-04-22T18:14:34.975Z,22.00
2019-04-22T18:16:52.151Z,22.10
2019-04-22T18:19:19.621Z,21.90
2019-04-22T18:21:47.655Z,21.80
2019-04-22T18:24:15.775Z,21.70
2019-04-22T18:27:03.270Z,21.60
2019-04-22T18:29:33.022Z,21.50
2019-04-22T18:31:55.625Z,21.40
2019-04-22T18:34:33.699Z,21.30
2019-04-22T18:37:04.008Z,21.20
2019-04-22T18:39:42.527Z,21.20
2019-04-22T18:42:13.156Z,21.00
2019-04-22T18:44:50.786Z,21.10
2019-04-22T18:47:14.780Z,21.00
2019-04-22T18:49:46.279Z,20.80
2019-04-22T18:52:43.605Z,20.80
2019-04-22T18:55:33.901Z,20.60
2019-04-22T18:58:04.125Z,20.40
2019-04-22T19:00:29.357Z,20.20
2019-04-22T19:03:07.449Z,20.10
2019-04-22T19:05:54.370Z,20.10
2019-04-22T19:08:36.639Z,19.90
2019-04-22T19:11:03.592Z,19.80
2019-04-22T19:16:17.518Z,19.60
2019-04-22T19:21:08.060Z,19.60
2019-04-22T19:23:38.979Z,19.60
2019-04-22T19:26:15.180Z,19.50
2019-04-22T19:28:40.451Z,19.40
2019-04-22T19:33:52.397Z,19.20
2019-04-22T19:36:36.059Z,19.10
2019-04-22T19:38:46.330Z,19.00
2019-04-22T19:41:24.015Z,18.90
2019-04-22T19:44:00.556Z,19.10
2019-04-22T19:46:25.112Z,19.00
2019-04-22T19:49:06.960Z,18.90
2019-04-22T19:51:44.097Z,19.00
2019-04-22T19:54:01.682Z,18.80
2019-04-22T19:56:26.490Z,18.90
2019-04-22T19:59:05.220Z,18.80
2019-04-22T20:01:54.076Z,18.80
2019-04-22T20:04:46.267Z,18.80
2019-04-22T20:07:14.100Z,18.70
2019-04-22T20:09:49.328Z,18.60
2019-04-22T20:12:18.457Z,18.50
2019-04-22T20:14:49.534Z,18.50
2019-04-22T20:17:30.053Z,18.60
2019-04-22T20:19:56.063Z,18.60
2019-04-22T20:22:23.600Z,18.40
2019-04-22T20:24:47.622Z,18.40
2019-04-22T20:27:30.344Z,18.30
2019-04-22T20:30:04.736Z,18.30
2019-04-22T20:32:32.591Z,18.10
2019-04-22T20:35:09.271Z,18.20
2019-04-22T20:37:38.552Z,18.20
2019-04-22T20:40:10.719Z,18.10
2019-04-22T20:42:51.510Z,18.10
2019-04-22T20:45:19.567Z,17.90
2019-04-22T20:47:40.458Z,17.70
2019-04-22T20:50:21.685Z,17.60
2019-04-22T20:52:59.574Z,17.60
2019-04-22T20:55:16.423Z,17.70
2019-04-22T20:57:53.079Z,17.60
2019-04-22T21:00:23.861Z,17.70
2019-04-22T21:02:48.869Z,17.60
2019-04-22T21:05:24.834Z,17.60
2019-04-22T21:08:06.330Z,17.50
2019-04-22T21:10:28.733Z,17.40
2019-04-22T21:13:00.151Z,17.40
2019-04-22T21:15:44.413Z,17.30
2019-04-22T21:18:08.379Z,17.30
2019-04-22T21:20:51.700Z,17.20
2019-04-22T21:23:17.906Z,17.20
2019-04-22T21:25:38.573Z,17.30
2019-04-22T21:28:21.890Z,17.30
2019-04-22T21:30:52.408Z,17.20
2019-04-22T21:33:18.620Z,17.20
2019-04-22T21:38:34.466Z,17.40
2019-04-22T21:40:59.910Z,17.30
2019-04-22T21:43:36.919Z,17.30
2019-04-22T21:46:08.729Z,17.60
2019-04-22T21:48:57.923Z,17.50
2019-04-22T21:51:12.335Z,17.40
2019-04-22T21:53:50.496Z,17.40
2019-04-22T21:56:31.865Z,17.50
2019-04-22T21:59:07.837Z,17.30
2019-04-22T22:01:54.805Z,17.30
2019-04-22T22:04:19.014Z,17.20
2019-04-22T22:06:41.359Z,17.30
2019-04-22T22:09:25.270Z,17.20
2019-04-22T22:11:51.091Z,17.20
2019-04-22T22:14:23.166Z,17.10
2019-04-22T22:16:50.650Z,17.00
2019-04-22T22:19:28.392Z,17.50
2019-04-22T22:22:06.057Z,17.50
2019-04-22T22:24:41.632Z,17.20
2019-04-22T22:27:11.034Z,17.20
2019-04-22T22:29:55.640Z,17.40
2019-04-22T22:32:13.312Z,17.60
2019-04-22T22:34:43.494Z,17.30
2019-04-22T22:37:06.467Z,17.10
2019-04-22T22:39:36.686Z,17.00
2019-04-22T22:41:57.634Z,16.90
2019-04-22T22:44:54.480Z,17.00
2019-04-22T22:47:39.260Z,17.10
2019-04-22T22:50:09.044Z,16.90
2019-04-22T22:53:19.125Z,16.90
2019-04-22T22:55:16.400Z,16.90
2019-04-22T22:57:50.234Z,16.70
2019-04-22T23:00:15.899Z,16.70
2019-04-22T23:03:11.175Z,16.60
2019-04-22T23:05:29.019Z,16.60
2019-04-22T23:07:59.001Z,16.40
2019-04-22T23:10:31.700Z,16.30
2019-04-22T23:13:06.771Z,16.30
2019-04-22T23:15:29.169Z,16.20
2019-04-22T23:17:45.695Z,16.10
2019-04-22T23:20:18.505Z,16.20
2019-04-22T23:23:14.405Z,16.10
2019-04-22T23:25:49.944Z,16.00
2019-04-22T23:28:30.745Z,15.90
2019-04-22T23:31:09.454Z,15.90
2019-04-22T23:33:54.749Z,15.90
2019-04-22T23:36:36.944Z,15.90
2019-04-22T23:39:17.102Z,15.80
2019-04-22T23:41:51.380Z,15.80
2019-04-22T23:44:39.851Z,15.80
2019-04-22T23:46:56.792Z,15.70
2019-04-22T23:49:30.010Z,15.70
2019-04-22T23:52:16.148Z,15.60
2019-04-22T23:54:49.152Z,15.60
2019-04-22T23:57:16.702Z,15.70
2019-04-22T23:59:49.527Z,15.70
